Flight Track Log - Related Links

Times and Time Zones

All times are in EDT time to prevent confusion due to time zone crossing. See the SWA624 flight status page for this flight to view local times or setup timezone preferences in your user account.

Time Position Orientation Groundspeed Altitude Reporting Facility
EDT Latitude Longitude Course Direction KTS MPH feet Rate Location/Type
Wed 02:16:16 AM 37.6833 -122.4333 288° West 212 244 6,400  Level Northern Cal TRACON
Wed 02:17:16 AM 37.6833 -122.5167 270° West 241 277 10,800 3,136 Climbing Northern Cal TRACON
Wed 02:18:28 AM 37.6167 -122.4897 162° South 300 345 13,300 2,752 Climbing Oakland Center
Wed 02:19:29 AM 37.5536 -122.3931 129° Southeast 355 409 16,900 3,049 Climbing Oakland Center
Wed 02:20:00 AM 37.2759 -122.1185 122° Southeast  Level FlightAware Approximate
Wed 02:20:30 AM 37.4856 -122.2931 131° Southeast 373 429 19,500  Level Oakland Center
Wed 02:21:30 AM 37.4064 -122.1594 127° Southeast 395 455 23,800 3,620 Climbing Oakland Center
Wed 02:22:31 AM 37.3517 -122.0347 119° Southeast 408 470 26,800 2,826 Climbing Oakland Center
Wed 02:23:31 AM 37.2925 -121.9081 120° Southeast 421 484 29,500 2,430 Climbing Oakland Center
Wed 02:24:32 AM 37.2364 -121.7869 120° Southeast 433 498 31,700 2,529 Climbing Oakland Center
Wed 02:25:32 AM 37.1753 -121.6542 120° Southeast 439 505 34,600 2,678 Climbing Oakland Center
Wed 02:26:33 AM 37.1169 -121.5275 120° Southeast 425 489 37,100 2,164 Climbing Oakland Center
Wed 02:27:34 AM 37.0522 -121.3950 121° Southeast 417 480 39,000 1,736 Climbing Oakland Center
Wed 02:28:34 AM 36.9939 -121.2681 120° Southeast 421 484 40,600 992 Climbing Oakland Center
Wed 02:29:35 AM 36.9342 -121.1428 121° Southeast 421 484 41,000 198 Climbing Oakland Center
Wed 02:30:35 AM 36.8783 -121.0283 121° Southeast 420 483 41,000  Level Oakland Center
Wed 02:31:36 AM 36.8078 -120.8772 120° Southeast 423 487 41,000  Level Oakland Center
Wed 02:32:36 AM 36.7478 -120.7556 122° Southeast 415 478 41,000  Level Oakland Center
Wed 02:33:37 AM 36.6872 -120.6342 122° Southeast 412 474 41,000  Level Oakland Center
Wed 02:34:37 AM 36.6283 -120.5100 121° Southeast 415 478 41,000  Level Oakland Center
Wed 02:35:38 AM 36.5681 -120.3858 121° Southeast 417 480 41,000  Level Oakland Center
Wed 02:36:39 AM 36.5083 -120.2633 121° Southeast 415 478 41,000  Level Oakland Center
Wed 02:37:39 AM 36.4492 -120.1422 121° Southeast 413 475 41,000  Level Oakland Center
Wed 02:38:40 AM 36.3906 -120.0211 121° Southeast 411 473 41,000  Level Oakland Center
Wed 02:39:40 AM 36.3308 -119.8997 121° Southeast 410 472 41,000  Level Oakland Center
Wed 02:40:41 AM 36.2697 -119.7769 122° Southeast 415 478 41,000  Level Oakland Center
Wed 02:41:41 AM 36.2094 -119.6533 121° Southeast 418 481 41,000  Level Oakland Center
Wed 02:42:42 AM 36.1486 -119.5331 122° Southeast 415 478 41,000  Level Oakland Center
Wed 02:43:42 AM 36.0869 -119.4111 122° Southeast 417 480 41,000  Level Oakland Center
Wed 02:44:43 AM 36.0258 -119.2881 122° Southeast 418 481 41,000  Level Oakland Center
Wed 02:45:43 AM 35.9650 -119.1656 122° Southeast 418 481 41,000  Level Oakland Center
Wed 02:46:42 AM 35.9017 -119.0431 123° Southeast 419 482 41,000  Level Los Angeles Center
Wed 02:47:43 AM 35.8428 -118.9228 121° Southeast 412 474 41,000  Level Los Angeles Center
Wed 02:48:43 AM 35.7811 -118.8022 122° Southeast 413 475 41,000  Level Los Angeles Center
Wed 02:49:44 AM 35.7197 -118.6811 122° Southeast 416 479 41,000  Level Los Angeles Center
Wed 02:50:45 AM 35.6572 -118.5611 123° Southeast 417 480 41,000  Level Los Angeles Center
Wed 02:51:45 AM 35.5958 -118.4414 122° Southeast 415 478 41,000  Level Los Angeles Center
Wed 02:52:46 AM 35.5350 -118.3242 123° Southeast 410 472 41,000  Level Los Angeles Center
Wed 02:53:47 AM 35.4750 -118.2072 122° Southeast 408 470 41,000  Level Los Angeles Center
Wed 02:54:47 AM 35.4133 -118.0894 123° Southeast 409 471 41,000  Level Los Angeles Center
Wed 02:55:48 AM 35.3522 -117.9714 122° Southeast 411 473 41,000  Level Los Angeles Center
Wed 02:56:48 AM 35.2906 -117.8539 123° Southeast 410 472 41,000  Level Los Angeles Center
Wed 02:57:49 AM 35.2292 -117.7361 123° Southeast 410 472 41,000  Level Los Angeles Center
Wed 02:58:50 AM 35.1636 -117.6100 122° Southeast 414 476 41,000  Level Los Angeles Center
Wed 03:00:02 AM 35.0897 -117.4739 124° Southeast 417 480 41,000  Level Los Angeles Center
Wed 03:01:03 AM 35.0203 -117.3417 123° Southeast 424 488 41,000  Level Los Angeles Center
Wed 03:02:03 AM 34.9569 -117.2233 123° Southeast 421 484 41,000  Level Los Angeles Center
Wed 03:03:04 AM 34.8944 -117.1053 123° Southeast 421 484 41,000  Level Los Angeles Center
Wed 03:04:04 AM 34.8319 -116.9894 123° Southeast 412 474 41,000  Level Los Angeles Center
Wed 03:05:05 AM 34.7689 -116.8719 123° Southeast 416 479 41,000  Level Los Angeles Center
Wed 03:06:05 AM 34.7058 -116.7564 124° Southeast 413 475 41,000  Level Los Angeles Center
Wed 03:07:06 AM 34.6425 -116.6394 123° Southeast 414 476 41,000  Level Los Angeles Center
Wed 03:08:06 AM 34.5794 -116.5222 123° Southeast 414 476 41,000  Level Los Angeles Center
Wed 03:09:07 AM 34.5161 -116.4053 123° Southeast 414 476 41,000  Level Los Angeles Center
Wed 03:10:07 AM 34.4508 -116.2875 124° Southeast 419 482 41,000  Level Los Angeles Center
Wed 03:11:08 AM 34.3875 -116.1708 123° Southeast 416 479 41,000  Level Los Angeles Center
Wed 03:12:08 AM 34.3228 -116.0525 123° Southeast 420 483 41,000  Level Los Angeles Center
Wed 03:13:09 AM 34.2589 -115.9367 124° Southeast 418 481 41,000  Level Los Angeles Center
Wed 03:14:09 AM 34.1856 -115.8044 124° Southeast 416 479 41,000  Level Los Angeles Center
Wed 03:15:10 AM 34.1228 -115.6861 123° Southeast 416 479 41,000  Level Los Angeles Center
Wed 03:16:10 AM 34.0967 -115.5478 103° East 421 484 41,000  Level Los Angeles Center
Wed 03:17:11 AM 34.0731 -115.4083 102° East 423 487 41,000  Level Los Angeles Center
Wed 03:18:11 AM 34.0486 -115.2700 102° East 422 486 41,000  Level Los Angeles Center
Wed 03:19:12 AM 34.0256 -115.1297 101° East 426 490 41,000  Level Los Angeles Center
Wed 03:20:12 AM 34.0000 -114.9908 102° East 424 488 41,000  Level Los Angeles Center
Wed 03:21:13 AM 33.9767 -114.8514 101° East 424 488 41,000  Level Los Angeles Center
Wed 03:22:13 AM 33.9525 -114.7144 102° East 421 484 41,000  Level Los Angeles Center
Wed 03:23:13 AM 33.9272 -114.5758 102° East 424 488 41,000  Level Los Angeles Center
Wed 03:24:26 AM 33.9028 -114.4367 102° East 424 488 41,000 -90 Level Los Angeles Center
Wed 03:25:26 AM 33.8717 -114.2703 103° East 426 490 40,800 -793 Descending Los Angeles Center
Wed 03:26:27 AM 33.8478 -114.1342 102° East 419 482 39,400 -1,800 Descending Los Angeles Center
Wed 03:27:16 AM 33.8283 -114.0206 102° East 419 482 37,500 -2,727 Descending Albuquerque Center
Wed 03:28:17 AM 33.8033 -113.8811 102° East 425 489 34,400 -3,223 Descending Albuquerque Center
Wed 03:29:17 AM 33.7761 -113.7372 103° East 436 502 31,000 -3,150 Descending Albuquerque Center
Wed 03:30:17 AM 33.7481 -113.5928 103° East 445 512 28,100 -2,850 Descending Albuquerque Center
Wed 03:31:17 AM 33.7225 -113.4494 102° East 442 509 25,300 -2,750 Descending Albuquerque Center
Wed 03:32:17 AM 33.6958 -113.3133 103° East 427 491 22,600 -2,628 Descending Albuquerque Center
Wed 03:33:18 AM 33.6717 -113.1847 103° East 405 466 20,000 -2,529 Descending Albuquerque Center
Wed 03:34:18 AM 33.6478 -113.0606 103° East 389 448 17,500 -2,500 Descending Albuquerque Center
Wed 03:35:18 AM 33.6258 -112.9450 103° East 376 433 15,000 -2,500 Descending Albuquerque Center
Wed 03:36:18 AM 33.6022 -112.8278 104° East 364 419 12,500 -2,300 Descending Albuquerque Center
Wed 03:37:18 AM 33.5714 -112.7156 108° East 355 409 10,400 -1,736 Descending Albuquerque Center
Wed 03:38:19 AM 33.5400 -112.6000 108° East 316 364 9,000 -1,190 Descending Albuquerque Center
Wed 03:39:19 AM 33.5211 -112.5281 107° East 285 328 8,000 -950 Descending Albuquerque Center
Wed 03:40:19 AM 33.4975 -112.4464 109° East 262 302 7,100 -1,200 Descending Albuquerque Center
Wed 03:41:19 AM 33.4717 -112.3525 108° East 248 285 5,600 -1,339 Descending Albuquerque Center
Wed 03:42:20 AM 33.4533 -112.2847 108° East 219 252 4,400 -793 Descending Albuquerque Center
Wed 03:43:20 AM 33.4358 -112.2275 110° East 189 217 4,000 -450 Descending Albuquerque Center
Wed 03:44:20 AM 33.4314 -112.1739 96° East 166 191 3,500 -750 Descending Albuquerque Center
Wed 03:45:20 AM 33.4314 -112.1192 90° East 167 192 2,500 -800 Descending Albuquerque Center
Wed 03:46:20 AM 33.4308 -112.0742 91° East 138 159 1,900 -595 Descending Albuquerque Center
Wed 03:47:21 AM 33.4314 -112.0358 89° East 118 136 1,300 -590 Descending Albuquerque Center
Wed 03:49:00 AM 33.4343 -112.0116 90° East  Level Estimated

Login

Don't have an account? Register now (free) for customized features, flight alerts, and more!